sensor_id;sensor_type;location;lat;lon;timestamp;P1;durP1;ratioP1;P2;durP2;ratioP2
70313;SDS011;57725;47.526;18.986;2022-09-09T00:04:47;2.03;;;1.42;;
70313;SDS011;57725;47.526;18.986;2022-09-09T00:07:41;1.90;;;1.45;;
70313;SDS011;57725;47.526;18.986;2022-09-09T00:10:20;1.52;;;1.23;;
70313;SDS011;57725;47.526;18.986;2022-09-09T00:16:00;2.92;;;1.17;;
70313;SDS011;57725;47.526;18.986;2022-09-09T00:21:26;2.15;;;1.55;;
70313;SDS011;57725;47.526;18.986;2022-09-09T00:24:04;2.42;;;1.45;;
70313;SDS011;57725;47.526;18.986;2022-09-09T00:26:48;1.55;;;1.23;;
70313;SDS011;57725;47.526;18.986;2022-09-09T00:31:55;1.50;;;1.30;;
70313;SDS011;57725;47.526;18.986;2022-09-09T00:34:26;1.60;;;1.05;;
70313;SDS011;57725;47.526;18.986;2022-09-09T00:36:55;1.58;;;1.13;;
70313;SDS011;57725;47.526;18.986;2022-09-09T00:42:14;1.38;;;1.10;;
70313;SDS011;57725;47.526;18.986;2022-09-09T00:47:50;1.70;;;1.00;;
70313;SDS011;57725;47.526;18.986;2022-09-09T00:58:13;1.33;;;1.17;;
70313;SDS011;57725;47.526;18.986;2022-09-09T01:00:43;1.63;;;1.20;;
70313;SDS011;57725;47.526;18.986;2022-09-09T01:03:18;1.25;;;0.88;;
70313;SDS011;57725;47.526;18.986;2022-09-09T01:06:15;1.23;;;1.13;;
70313;SDS011;57725;47.526;18.986;2022-09-09T01:14:29;1.58;;;1.17;;
70313;SDS011;57725;47.526;18.986;2022-09-09T01:16:56;1.70;;;0.88;;
70313;SDS011;57725;47.526;18.986;2022-09-09T01:19:37;1.48;;;1.00;;
70313;SDS011;57725;47.526;18.986;2022-09-09T01:25:24;1.23;;;1.13;;
70313;SDS011;57725;47.526;18.986;2022-09-09T01:27:55;1.98;;;1.00;;
70313;SDS011;57725;47.526;18.986;2022-09-09T01:30:24;1.30;;;1.05;;
70313;SDS011;57725;47.526;18.986;2022-09-09T01:32:53;1.08;;;0.70;;
70313;SDS011;57725;47.526;18.986;2022-09-09T01:40:26;1.05;;;0.90;;
70313;SDS011;57725;47.526;18.986;2022-09-09T01:42:52;1.48;;;1.02;;
70313;SDS011;57725;47.526;18.986;2022-09-09T01:45:18;0.93;;;0.80;;
70313;SDS011;57725;47.526;18.986;2022-09-09T01:47:47;1.38;;;1.15;;
70313;SDS011;57725;47.526;18.986;2022-09-09T01:50:14;1.48;;;1.10;;
70313;SDS011;57725;47.526;18.986;2022-09-09T01:52:41;1.20;;;0.75;;
70313;SDS011;57725;47.526;18.986;2022-09-09T01:55:08;1.10;;;0.60;;
70313;SDS011;57725;47.526;18.986;2022-09-09T01:57:39;1.20;;;0.90;;
70313;SDS011;57725;47.526;18.986;2022-09-09T02:00:15;1.70;;;1.20;;
70313;SDS011;57725;47.526;18.986;2022-09-09T02:12:53;0.83;;;0.70;;
70313;SDS011;57725;47.526;18.986;2022-09-09T02:15:27;0.70;;;0.60;;
70313;SDS011;57725;47.526;18.986;2022-09-09T02:17:57;1.05;;;0.65;;
70313;SDS011;57725;47.526;18.986;2022-09-09T02:20:24;1.05;;;0.77;;
70313;SDS011;57725;47.526;18.986;2022-09-09T02:22:57;0.80;;;0.60;;
70313;SDS011;57725;47.526;18.986;2022-09-09T02:25:26;0.73;;;0.60;;
70313;SDS011;57725;47.526;18.986;2022-09-09T02:27:58;0.90;;;0.57;;
70313;SDS011;57725;47.526;18.986;2022-09-09T02:30:29;1.25;;;0.60;;
70313;SDS011;57725;47.526;18.986;2022-09-09T02:32:57;0.80;;;0.55;;
70313;SDS011;57725;47.526;18.986;2022-09-09T02:35:27;0.90;;;0.70;;
70313;SDS011;57725;47.526;18.986;2022-09-09T02:37:56;0.95;;;0.68;;
70313;SDS011;57725;47.526;18.986;2022-09-09T02:40:27;1.40;;;0.95;;
70313;SDS011;57725;47.526;18.986;2022-09-09T02:42:57;1.10;;;0.70;;
70313;SDS011;57725;47.526;18.986;2022-09-09T02:45:36;0.77;;;0.57;;
70313;SDS011;57725;47.526;18.986;2022-09-09T02:48:11;0.90;;;0.80;;
70313;SDS011;57725;47.526;18.986;2022-09-09T02:53:46;0.82;;;0.63;;
70313;SDS011;57725;47.526;18.986;2022-09-09T02:56:20;1.30;;;0.77;;
70313;SDS011;57725;47.526;18.986;2022-09-09T02:58:48;1.00;;;0.70;;
70313;SDS011;57725;47.526;18.986;2022-09-09T03:01:17;1.23;;;0.70;;
70313;SDS011;57725;47.526;18.986;2022-09-09T03:03:44;0.98;;;0.60;;
70313;SDS011;57725;47.526;18.986;2022-09-09T03:06:11;0.80;;;0.63;;
70313;SDS011;57725;47.526;18.986;2022-09-09T03:08:39;1.23;;;0.70;;
70313;SDS011;57725;47.526;18.986;2022-09-09T03:11:05;1.52;;;0.95;;
70313;SDS011;57725;47.526;18.986;2022-09-09T03:13:34;0.82;;;0.63;;
70313;SDS011;57725;47.526;18.986;2022-09-09T03:16:02;1.05;;;0.50;;
70313;SDS011;57725;47.526;18.986;2022-09-09T03:18:29;2.25;;;0.68;;
70313;SDS011;57725;47.526;18.986;2022-09-09T03:20:59;0.80;;;0.65;;
70313;SDS011;57725;47.526;18.986;2022-09-09T03:23:25;2.20;;;0.50;;
70313;SDS011;57725;47.526;18.986;2022-09-09T03:25:50;1.30;;;0.88;;
70313;SDS011;57725;47.526;18.986;2022-09-09T03:28:17;0.75;;;0.70;;
70313;SDS011;57725;47.526;18.986;2022-09-09T03:30:42;1.42;;;0.70;;
70313;SDS011;57725;47.526;18.986;2022-09-09T03:33:08;0.65;;;0.40;;
70313;SDS011;57725;47.526;18.986;2022-09-09T03:35:33;0.70;;;0.52;;
70313;SDS011;57725;47.526;18.986;2022-09-09T03:37:58;0.65;;;0.50;;
70313;SDS011;57725;47.526;18.986;2022-09-09T03:40:26;0.50;;;0.40;;
70313;SDS011;57725;47.526;18.986;2022-09-09T03:42:52;0.70;;;0.50;;
70313;SDS011;57725;47.526;18.986;2022-09-09T03:45:17;0.93;;;0.52;;
70313;SDS011;57725;47.526;18.986;2022-09-09T03:47:45;0.60;;;0.38;;
70313;SDS011;57725;47.526;18.986;2022-09-09T03:50:12;0.70;;;0.40;;
70313;SDS011;57725;47.526;18.986;2022-09-09T03:52:38;0.60;;;0.40;;
70313;SDS011;57725;47.526;18.986;2022-09-09T03:55:05;1.08;;;0.68;;
70313;SDS011;57725;47.526;18.986;2022-09-09T03:57:32;1.90;;;0.93;;
70313;SDS011;57725;47.526;18.986;2022-09-09T04:00:02;0.70;;;0.38;;
70313;SDS011;57725;47.526;18.986;2022-09-09T04:02:32;2.30;;;0.40;;
70313;SDS011;57725;47.526;18.986;2022-09-09T04:04:57;0.57;;;0.40;;
70313;SDS011;57725;47.526;18.986;2022-09-09T04:07:22;0.60;;;0.40;;
70313;SDS011;57725;47.526;18.986;2022-09-09T04:09:52;1.00;;;0.57;;
70313;SDS011;57725;47.526;18.986;2022-09-09T04:12:20;0.50;;;0.40;;
70313;SDS011;57725;47.526;18.986;2022-09-09T04:14:47;0.70;;;0.50;;
70313;SDS011;57725;47.526;18.986;2022-09-09T04:17:15;0.50;;;0.32;;
70313;SDS011;57725;47.526;18.986;2022-09-09T04:19:40;0.88;;;0.47;;
70313;SDS011;57725;47.526;18.986;2022-09-09T04:22:07;0.70;;;0.30;;
70313;SDS011;57725;47.526;18.986;2022-09-09T04:24:34;0.50;;;0.38;;
70313;SDS011;57725;47.526;18.986;2022-09-09T04:27:06;0.90;;;0.47;;
70313;SDS011;57725;47.526;18.986;2022-09-09T04:29:38;0.75;;;0.65;;
70313;SDS011;57725;47.526;18.986;2022-09-09T04:32:10;0.50;;;0.40;;
70313;SDS011;57725;47.526;18.986;2022-09-09T04:34:38;0.52;;;0.40;;
70313;SDS011;57725;47.526;18.986;2022-09-09T04:37:03;0.75;;;0.40;;
70313;SDS011;57725;47.526;18.986;2022-09-09T04:39:28;0.70;;;0.40;;
70313;SDS011;57725;47.526;18.986;2022-09-09T04:41:56;0.60;;;0.40;;
70313;SDS011;57725;47.526;18.986;2022-09-09T04:44:21;0.60;;;0.38;;
70313;SDS011;57725;47.526;18.986;2022-09-09T04:46:49;0.70;;;0.47;;
70313;SDS011;57725;47.526;18.986;2022-09-09T04:49:14;0.60;;;0.43;;
70313;SDS011;57725;47.526;18.986;2022-09-09T04:51:40;1.23;;;0.50;;
70313;SDS011;57725;47.526;18.986;2022-09-09T04:54:05;0.65;;;0.35;;
70313;SDS011;57725;47.526;18.986;2022-09-09T04:56:33;0.63;;;0.40;;
70313;SDS011;57725;47.526;18.986;2022-09-09T04:58:58;1.02;;;0.60;;
70313;SDS011;57725;47.526;18.986;2022-09-09T05:01:24;0.63;;;0.47;;
70313;SDS011;57725;47.526;18.986;2022-09-09T05:03:50;0.60;;;0.45;;
70313;SDS011;57725;47.526;18.986;2022-09-09T05:06:20;0.90;;;0.50;;
70313;SDS011;57725;47.526;18.986;2022-09-09T05:08:47;0.73;;;0.40;;
70313;SDS011;57725;47.526;18.986;2022-09-09T05:11:15;0.55;;;0.30;;
70313;SDS011;57725;47.526;18.986;2022-09-09T05:13:42;0.90;;;0.50;;
70313;SDS011;57725;47.526;18.986;2022-09-09T05:16:08;0.80;;;0.50;;
70313;SDS011;57725;47.526;18.986;2022-09-09T05:18:36;0.73;;;0.47;;
70313;SDS011;57725;47.526;18.986;2022-09-09T05:21:02;1.30;;;0.47;;
70313;SDS011;57725;47.526;18.986;2022-09-09T05:23:35;0.82;;;0.40;;
70313;SDS011;57725;47.526;18.986;2022-09-09T05:26:04;0.98;;;0.55;;
70313;SDS011;57725;47.526;18.986;2022-09-09T05:28:30;1.17;;;0.60;;
70313;SDS011;57725;47.526;18.986;2022-09-09T05:31:06;1.08;;;0.43;;
70313;SDS011;57725;47.526;18.986;2022-09-09T05:33:38;0.40;;;0.30;;
70313;SDS011;57725;47.526;18.986;2022-09-09T05:36:13;0.63;;;0.40;;
70313;SDS011;57725;47.526;18.986;2022-09-09T05:38:41;0.70;;;0.45;;
70313;SDS011;57725;47.526;18.986;2022-09-09T05:41:08;1.25;;;0.60;;
70313;SDS011;57725;47.526;18.986;2022-09-09T05:43:37;0.43;;;0.30;;
70313;SDS011;57725;47.526;18.986;2022-09-09T05:46:07;0.73;;;0.40;;
70313;SDS011;57725;47.526;18.986;2022-09-09T05:48:40;0.60;;;0.40;;
70313;SDS011;57725;47.526;18.986;2022-09-09T05:51:08;0.77;;;0.50;;
70313;SDS011;57725;47.526;18.986;2022-09-09T05:53:40;1.85;;;0.50;;
70313;SDS011;57725;47.526;18.986;2022-09-09T05:58:39;0.68;;;0.38;;
70313;SDS011;57725;47.526;18.986;2022-09-09T06:03:35;0.90;;;0.52;;
70313;SDS011;57725;47.526;18.986;2022-09-09T06:06:03;0.82;;;0.57;;
70313;SDS011;57725;47.526;18.986;2022-09-09T06:08:31;1.15;;;0.40;;
70313;SDS011;57725;47.526;18.986;2022-09-09T06:11:03;0.70;;;0.60;;
70313;SDS011;57725;47.526;18.986;2022-09-09T06:13:32;0.50;;;0.32;;
70313;SDS011;57725;47.526;18.986;2022-09-09T06:16:04;0.70;;;0.50;;
70313;SDS011;57725;47.526;18.986;2022-09-09T06:18:32;0.65;;;0.50;;
70313;SDS011;57725;47.526;18.986;2022-09-09T06:20:59;0.55;;;0.50;;
70313;SDS011;57725;47.526;18.986;2022-09-09T06:23:28;1.38;;;0.52;;
70313;SDS011;57725;47.526;18.986;2022-09-09T06:26:13;1.00;;;0.45;;
70313;SDS011;57725;47.526;18.986;2022-09-09T06:28:42;0.70;;;0.60;;
70313;SDS011;57725;47.526;18.986;2022-09-09T06:31:13;1.27;;;0.80;;
70313;SDS011;57725;47.526;18.986;2022-09-09T06:33:50;0.52;;;0.40;;
70313;SDS011;57725;47.526;18.986;2022-09-09T06:36:20;0.50;;;0.43;;
70313;SDS011;57725;47.526;18.986;2022-09-09T06:38:49;0.80;;;0.68;;
70313;SDS011;57725;47.526;18.986;2022-09-09T06:41:16;0.50;;;0.40;;
70313;SDS011;57725;47.526;18.986;2022-09-09T06:43:43;0.70;;;0.50;;
70313;SDS011;57725;47.526;18.986;2022-09-09T06:46:12;0.70;;;0.47;;
70313;SDS011;57725;47.526;18.986;2022-09-09T06:48:42;0.60;;;0.35;;
70313;SDS011;57725;47.526;18.986;2022-09-09T06:51:14;0.75;;;0.52;;
70313;SDS011;57725;47.526;18.986;2022-09-09T06:53:42;0.43;;;0.30;;
70313;SDS011;57725;47.526;18.986;2022-09-09T06:58:37;0.90;;;0.53;;
70313;SDS011;57725;47.526;18.986;2022-09-09T07:01:08;0.65;;;0.47;;
70313;SDS011;57725;47.526;18.986;2022-09-09T07:03:35;0.80;;;0.40;;
70313;SDS011;57725;47.526;18.986;2022-09-09T07:06:03;0.95;;;0.60;;
70313;SDS011;57725;47.526;18.986;2022-09-09T07:08:31;0.45;;;0.30;;
70313;SDS011;57725;47.526;18.986;2022-09-09T07:11:03;0.60;;;0.40;;
70313;SDS011;57725;47.526;18.986;2022-09-09T07:13:30;0.60;;;0.30;;
70313;SDS011;57725;47.526;18.986;2022-09-09T07:16:02;0.70;;;0.40;;
70313;SDS011;57725;47.526;18.986;2022-09-09T07:18:33;0.93;;;0.40;;
70313;SDS011;57725;47.526;18.986;2022-09-09T07:21:00;0.95;;;0.50;;
70313;SDS011;57725;47.526;18.986;2022-09-09T07:23:30;0.55;;;0.40;;
70313;SDS011;57725;47.526;18.986;2022-09-09T07:25:56;0.70;;;0.52;;
70313;SDS011;57725;47.526;18.986;2022-09-09T07:28:23;0.73;;;0.40;;
70313;SDS011;57725;47.526;18.986;2022-09-09T07:30:55;0.70;;;0.65;;
70313;SDS011;57725;47.526;18.986;2022-09-09T07:33:23;0.68;;;0.40;;
70313;SDS011;57725;47.526;18.986;2022-09-09T07:35:51;1.02;;;0.70;;
70313;SDS011;57725;47.526;18.986;2022-09-09T07:38:18;0.82;;;0.63;;
70313;SDS011;57725;47.526;18.986;2022-09-09T07:40:44;0.80;;;0.45;;
70313;SDS011;57725;47.526;18.986;2022-09-09T07:43:10;0.70;;;0.50;;
70313;SDS011;57725;47.526;18.986;2022-09-09T07:45:35;0.68;;;0.45;;
70313;SDS011;57725;47.526;18.986;2022-09-09T07:48:01;0.43;;;0.30;;
70313;SDS011;57725;47.526;18.986;2022-09-09T07:50:29;0.75;;;0.43;;
70313;SDS011;57725;47.526;18.986;2022-09-09T07:52:55;0.70;;;0.52;;
70313;SDS011;57725;47.526;18.986;2022-09-09T07:55:23;0.60;;;0.40;;
70313;SDS011;57725;47.526;18.986;2022-09-09T07:57:52;0.60;;;0.32;;
70313;SDS011;57725;47.526;18.986;2022-09-09T08:00:22;0.70;;;0.50;;
70313;SDS011;57725;47.526;18.986;2022-09-09T08:02:48;0.75;;;0.55;;
70313;SDS011;57725;47.526;18.986;2022-09-09T08:05:14;0.50;;;0.30;;
70313;SDS011;57725;47.526;18.986;2022-09-09T08:07:44;0.68;;;0.50;;
70313;SDS011;57725;47.526;18.986;2022-09-09T08:10:12;0.70;;;0.47;;
70313;SDS011;57725;47.526;18.986;2022-09-09T08:12:39;0.73;;;0.43;;
70313;SDS011;57725;47.526;18.986;2022-09-09T08:15:07;1.63;;;0.90;;
70313;SDS011;57725;47.526;18.986;2022-09-09T08:17:32;0.60;;;0.50;;
70313;SDS011;57725;47.526;18.986;2022-09-09T08:19:58;0.65;;;0.40;;
70313;SDS011;57725;47.526;18.986;2022-09-09T08:22:30;0.60;;;0.50;;
70313;SDS011;57725;47.526;18.986;2022-09-09T08:24:56;0.68;;;0.60;;
70313;SDS011;57725;47.526;18.986;2022-09-09T08:27:21;0.55;;;0.43;;
70313;SDS011;57725;47.526;18.986;2022-09-09T08:29:47;0.45;;;0.40;;
70313;SDS011;57725;47.526;18.986;2022-09-09T08:32:15;1.00;;;0.77;;
70313;SDS011;57725;47.526;18.986;2022-09-09T08:34:41;1.30;;;0.52;;
70313;SDS011;57725;47.526;18.986;2022-09-09T08:37:06;1.02;;;0.50;;
70313;SDS011;57725;47.526;18.986;2022-09-09T08:39:34;0.60;;;0.50;;
70313;SDS011;57725;47.526;18.986;2022-09-09T08:42:09;0.68;;;0.52;;
70313;SDS011;57725;47.526;18.986;2022-09-09T08:55:56;1.25;;;0.80;;
70313;SDS011;57725;47.526;18.986;2022-09-09T08:58:27;0.70;;;0.57;;
70313;SDS011;57725;47.526;18.986;2022-09-09T09:01:01;1.13;;;0.60;;
70313;SDS011;57725;47.526;18.986;2022-09-09T09:11:53;0.75;;;0.50;;
70313;SDS011;57725;47.526;18.986;2022-09-09T09:14:25;0.90;;;0.68;;
70313;SDS011;57725;47.526;18.986;2022-09-09T09:19:23;1.08;;;0.45;;
70313;SDS011;57725;47.526;18.986;2022-09-09T09:21:59;1.00;;;0.68;;
70313;SDS011;57725;47.526;18.986;2022-09-09T09:27:13;0.85;;;0.70;;
70313;SDS011;57725;47.526;18.986;2022-09-09T09:29:47;2.85;;;1.00;;
70313;SDS011;57725;47.526;18.986;2022-09-09T09:32:16;0.75;;;0.47;;
70313;SDS011;57725;47.526;18.986;2022-09-09T09:34:49;0.73;;;0.60;;
70313;SDS011;57725;47.526;18.986;2022-09-09T09:37:17;0.70;;;0.60;;
70313;SDS011;57725;47.526;18.986;2022-09-09T09:39:52;0.80;;;0.60;;
70313;SDS011;57725;47.526;18.986;2022-09-09T09:42:18;0.90;;;0.70;;
70313;SDS011;57725;47.526;18.986;2022-09-09T09:44:46;0.90;;;0.68;;
70313;SDS011;57725;47.526;18.986;2022-09-09T09:47:13;0.82;;;0.65;;
70313;SDS011;57725;47.526;18.986;2022-09-09T09:52:24;0.70;;;0.50;;
70313;SDS011;57725;47.526;18.986;2022-09-09T09:54:52;0.82;;;0.63;;
70313;SDS011;57725;47.526;18.986;2022-09-09T09:57:18;0.98;;;0.70;;
70313;SDS011;57725;47.526;18.986;2022-09-09T10:00:25;1.02;;;0.50;;
70313;SDS011;57725;47.526;18.986;2022-09-09T10:02:46;0.88;;;0.80;;
70313;SDS011;57725;47.526;18.986;2022-09-09T10:07:40;0.70;;;0.60;;
70313;SDS011;57725;47.526;18.986;2022-09-09T10:10:08;1.00;;;0.90;;
70313;SDS011;57725;47.526;18.986;2022-09-09T10:12:44;1.00;;;0.70;;
70313;SDS011;57725;47.526;18.986;2022-09-09T10:23:44;1.20;;;0.98;;
70313;SDS011;57725;47.526;18.986;2022-09-09T10:28:58;1.30;;;1.00;;
70313;SDS011;57725;47.526;18.986;2022-09-09T10:40:19;0.70;;;0.68;;
70313;SDS011;57725;47.526;18.986;2022-09-09T10:42:56;1.00;;;0.88;;
70313;SDS011;57725;47.526;18.986;2022-09-09T10:48:28;1.58;;;0.80;;
70313;SDS011;57725;47.526;18.986;2022-09-09T10:56:21;0.93;;;0.63;;
70313;SDS011;57725;47.526;18.986;2022-09-09T10:58:52;0.80;;;0.73;;
70313;SDS011;57725;47.526;18.986;2022-09-09T11:01:23;1.13;;;0.98;;
70313;SDS011;57725;47.526;18.986;2022-09-09T11:03:56;1.00;;;0.80;;
70313;SDS011;57725;47.526;18.986;2022-09-09T11:06:43;0.88;;;0.77;;
70313;SDS011;57725;47.526;18.986;2022-09-09T11:09:18;1.55;;;0.80;;
70313;SDS011;57725;47.526;18.986;2022-09-09T11:14:44;1.13;;;0.95;;
70313;SDS011;57725;47.526;18.986;2022-09-09T11:17:20;1.50;;;0.90;;
70313;SDS011;57725;47.526;18.986;2022-09-09T11:20:13;1.85;;;0.88;;
70313;SDS011;57725;47.526;18.986;2022-09-09T11:31:02;0.90;;;0.70;;
70313;SDS011;57725;47.526;18.986;2022-09-09T11:33:58;1.23;;;0.80;;
70313;SDS011;57725;47.526;18.986;2022-09-09T11:39:09;1.02;;;0.90;;
70313;SDS011;57725;47.526;18.986;2022-09-09T11:41:42;1.65;;;0.60;;
70313;SDS011;57725;47.526;18.986;2022-09-09T11:44:11;1.17;;;0.85;;
70313;SDS011;57725;47.526;18.986;2022-09-09T11:46:42;1.00;;;0.60;;
70313;SDS011;57725;47.526;18.986;2022-09-09T11:49:27;0.90;;;0.70;;
70313;SDS011;57725;47.526;18.986;2022-09-09T11:51:58;1.15;;;0.93;;
70313;SDS011;57725;47.526;18.986;2022-09-09T11:54:28;1.15;;;0.80;;
70313;SDS011;57725;47.526;18.986;2022-09-09T11:56:55;1.27;;;1.02;;
70313;SDS011;57725;47.526;18.986;2022-09-09T11:59:26;0.90;;;0.80;;
70313;SDS011;57725;47.526;18.986;2022-09-09T12:04:57;0.80;;;0.65;;
70313;SDS011;57725;47.526;18.986;2022-09-09T12:07:38;1.20;;;0.80;;
70313;SDS011;57725;47.526;18.986;2022-09-09T12:12:36;1.05;;;0.75;;
70313;SDS011;57725;47.526;18.986;2022-09-09T12:15:25;1.90;;;0.77;;
70313;SDS011;57725;47.526;18.986;2022-09-09T12:17:57;1.48;;;0.60;;
70313;SDS011;57725;47.526;18.986;2022-09-09T12:31:58;1.00;;;0.80;;
70313;SDS011;57725;47.526;18.986;2022-09-09T12:34:55;2.08;;;0.88;;
70313;SDS011;57725;47.526;18.986;2022-09-09T12:42:33;0.85;;;0.70;;
70313;SDS011;57725;47.526;18.986;2022-09-09T12:45:14;1.23;;;0.60;;
70313;SDS011;57725;47.526;18.986;2022-09-09T12:47:54;0.95;;;0.68;;
70313;SDS011;57725;47.526;18.986;2022-09-09T12:50:24;1.13;;;0.60;;
70313;SDS011;57725;47.526;18.986;2022-09-09T12:53:16;1.23;;;0.80;;
70313;SDS011;57725;47.526;18.986;2022-09-09T12:55:59;0.95;;;0.60;;
70313;SDS011;57725;47.526;18.986;2022-09-09T12:58:27;1.50;;;0.73;;
70313;SDS011;57725;47.526;18.986;2022-09-09T13:00:58;1.15;;;0.80;;
70313;SDS011;57725;47.526;18.986;2022-09-09T13:03:25;0.63;;;0.52;;
70313;SDS011;57725;47.526;18.986;2022-09-09T13:05:51;0.88;;;0.70;;
70313;SDS011;57725;47.526;18.986;2022-09-09T13:08:18;0.60;;;0.50;;
70313;SDS011;57725;47.526;18.986;2022-09-09T13:10:49;1.10;;;0.63;;
70313;SDS011;57725;47.526;18.986;2022-09-09T13:13:23;1.55;;;0.80;;
70313;SDS011;57725;47.526;18.986;2022-09-09T13:15:58;1.83;;;0.80;;
70313;SDS011;57725;47.526;18.986;2022-09-09T13:18:29;1.02;;;0.70;;
70313;SDS011;57725;47.526;18.986;2022-09-09T13:20:59;0.80;;;0.60;;
70313;SDS011;57725;47.526;18.986;2022-09-09T13:23:32;1.35;;;0.90;;
70313;SDS011;57725;47.526;18.986;2022-09-09T13:26:01;1.35;;;0.90;;
70313;SDS011;57725;47.526;18.986;2022-09-09T13:28:35;0.90;;;0.55;;
70313;SDS011;57725;47.526;18.986;2022-09-09T13:31:01;1.02;;;0.75;;
70313;SDS011;57725;47.526;18.986;2022-09-09T13:33:38;1.27;;;0.70;;
70313;SDS011;57725;47.526;18.986;2022-09-09T13:36:11;1.30;;;0.90;;
70313;SDS011;57725;47.526;18.986;2022-09-09T13:38:40;0.93;;;0.60;;
70313;SDS011;57725;47.526;18.986;2022-09-09T13:41:20;0.90;;;0.68;;
70313;SDS011;57725;47.526;18.986;2022-09-09T13:43:50;0.90;;;0.55;;
70313;SDS011;57725;47.526;18.986;2022-09-09T13:49:03;3.85;;;1.63;;
70313;SDS011;57725;47.526;18.986;2022-09-09T13:51:48;0.90;;;0.70;;
70313;SDS011;57725;47.526;18.986;2022-09-09T13:54:16;1.05;;;0.77;;
70313;SDS011;57725;47.526;18.986;2022-09-09T13:56:44;0.90;;;0.80;;
70313;SDS011;57725;47.526;18.986;2022-09-09T13:59:14;0.60;;;0.52;;
70313;SDS011;57725;47.526;18.986;2022-09-09T14:01:49;1.13;;;0.90;;
70313;SDS011;57725;47.526;18.986;2022-09-09T14:04:17;1.02;;;0.82;;
70313;SDS011;57725;47.526;18.986;2022-09-09T14:06:45;1.10;;;0.70;;
70313;SDS011;57725;47.526;18.986;2022-09-09T14:09:11;0.80;;;0.68;;
70313;SDS011;57725;47.526;18.986;2022-09-09T14:11:40;2.25;;;0.70;;
70313;SDS011;57725;47.526;18.986;2022-09-09T14:14:05;0.95;;;0.80;;
70313;SDS011;57725;47.526;18.986;2022-09-09T14:16:33;0.70;;;0.60;;
70313;SDS011;57725;47.526;18.986;2022-09-09T14:19:01;0.90;;;0.80;;
70313;SDS011;57725;47.526;18.986;2022-09-09T14:21:27;0.80;;;0.63;;
70313;SDS011;57725;47.526;18.986;2022-09-09T14:23:55;1.33;;;0.90;;
70313;SDS011;57725;47.526;18.986;2022-09-09T14:26:29;0.82;;;0.52;;
70313;SDS011;57725;47.526;18.986;2022-09-09T14:28:55;0.80;;;0.63;;
70313;SDS011;57725;47.526;18.986;2022-09-09T14:31:21;0.75;;;0.63;;
70313;SDS011;57725;47.526;18.986;2022-09-09T14:33:47;0.52;;;0.52;;
70313;SDS011;57725;47.526;18.986;2022-09-09T14:36:12;0.82;;;0.60;;
70313;SDS011;57725;47.526;18.986;2022-09-09T14:38:38;2.08;;;0.55;;
70313;SDS011;57725;47.526;18.986;2022-09-09T14:41:07;1.05;;;0.50;;
70313;SDS011;57725;47.526;18.986;2022-09-09T14:43:37;0.73;;;0.55;;
70313;SDS011;57725;47.526;18.986;2022-09-09T14:46:04;0.73;;;0.65;;
70313;SDS011;57725;47.526;18.986;2022-09-09T14:48:33;1.20;;;0.60;;
70313;SDS011;57725;47.526;18.986;2022-09-09T14:51:08;1.73;;;0.60;;
70313;SDS011;57725;47.526;18.986;2022-09-09T14:53:39;1.35;;;0.90;;
70313;SDS011;57725;47.526;18.986;2022-09-09T14:58:35;2.78;;;0.70;;
70313;SDS011;57725;47.526;18.986;2022-09-09T15:03:39;1.05;;;0.95;;
70313;SDS011;57725;47.526;18.986;2022-09-09T15:06:12;0.82;;;0.80;;
70313;SDS011;57725;47.526;18.986;2022-09-09T15:08:40;0.95;;;0.70;;
70313;SDS011;57725;47.526;18.986;2022-09-09T15:11:07;0.70;;;0.60;;
70313;SDS011;57725;47.526;18.986;2022-09-09T15:13:33;0.75;;;0.50;;
70313;SDS011;57725;47.526;18.986;2022-09-09T15:16:06;0.68;;;0.55;;
70313;SDS011;57725;47.526;18.986;2022-09-09T15:18:35;2.38;;;0.70;;
70313;SDS011;57725;47.526;18.986;2022-09-09T15:21:01;0.85;;;0.80;;
70313;SDS011;57725;47.526;18.986;2022-09-09T15:23:33;1.13;;;0.93;;
70313;SDS011;57725;47.526;18.986;2022-09-09T15:26:04;0.82;;;0.60;;
70313;SDS011;57725;47.526;18.986;2022-09-09T15:28:31;1.60;;;0.70;;
70313;SDS011;57725;47.526;18.986;2022-09-09T15:31:09;1.20;;;0.77;;
70313;SDS011;57725;47.526;18.986;2022-09-09T15:33:39;0.77;;;0.55;;
70313;SDS011;57725;47.526;18.986;2022-09-09T15:38:47;0.70;;;0.57;;
70313;SDS011;57725;47.526;18.986;2022-09-09T15:41:16;1.00;;;0.50;;
70313;SDS011;57725;47.526;18.986;2022-09-09T15:43:43;1.15;;;0.60;;
70313;SDS011;57725;47.526;18.986;2022-09-09T15:48:42;0.80;;;0.63;;
70313;SDS011;57725;47.526;18.986;2022-09-09T15:51:09;0.73;;;0.63;;
70313;SDS011;57725;47.526;18.986;2022-09-09T15:53:38;1.27;;;0.60;;
70313;SDS011;57725;47.526;18.986;2022-09-09T15:56:06;1.20;;;0.80;;
70313;SDS011;57725;47.526;18.986;2022-09-09T15:58:32;1.05;;;0.70;;
70313;SDS011;57725;47.526;18.986;2022-09-09T16:01:04;0.70;;;0.60;;
70313;SDS011;57725;47.526;18.986;2022-09-09T16:03:37;0.70;;;0.60;;
70313;SDS011;57725;47.526;18.986;2022-09-09T16:06:07;0.80;;;0.57;;
70313;SDS011;57725;47.526;18.986;2022-09-09T16:08:38;1.10;;;0.70;;
70313;SDS011;57725;47.526;18.986;2022-09-09T16:11:18;1.40;;;0.57;;
70313;SDS011;57725;47.526;18.986;2022-09-09T16:13:46;0.90;;;0.68;;
70313;SDS011;57725;47.526;18.986;2022-09-09T16:16:15;0.70;;;0.60;;
70313;SDS011;57725;47.526;18.986;2022-09-09T16:18:45;1.23;;;0.70;;
70313;SDS011;57725;47.526;18.986;2022-09-09T16:21:16;1.50;;;0.90;;
70313;SDS011;57725;47.526;18.986;2022-09-09T16:23:54;1.17;;;0.90;;
70313;SDS011;57725;47.526;18.986;2022-09-09T16:26:27;0.90;;;0.60;;
70313;SDS011;57725;47.526;18.986;2022-09-09T16:28:56;2.03;;;1.00;;
70313;SDS011;57725;47.526;18.986;2022-09-09T16:31:28;0.88;;;0.73;;
70313;SDS011;57725;47.526;18.986;2022-09-09T16:33:54;0.98;;;0.80;;
70313;SDS011;57725;47.526;18.986;2022-09-09T16:36:23;0.93;;;0.63;;
70313;SDS011;57725;47.526;18.986;2022-09-09T16:38:54;0.73;;;0.70;;
70313;SDS011;57725;47.526;18.986;2022-09-09T16:41:24;2.58;;;0.80;;
70313;SDS011;57725;47.526;18.986;2022-09-09T16:44:00;11.43;;;0.88;;
70313;SDS011;57725;47.526;18.986;2022-09-09T16:46:31;17.58;;;1.10;;
70313;SDS011;57725;47.526;18.986;2022-09-09T16:48:59;19.95;;;1.73;;
70313;SDS011;57725;47.526;18.986;2022-09-09T16:51:27;18.63;;;1.50;;
70313;SDS011;57725;47.526;18.986;2022-09-09T16:53:54;10.85;;;1.73;;
70313;SDS011;57725;47.526;18.986;2022-09-09T16:56:24;15.93;;;1.52;;
70313;SDS011;57725;47.526;18.986;2022-09-09T16:58:54;9.63;;;1.10;;
70313;SDS011;57725;47.526;18.986;2022-09-09T17:01:24;13.63;;;1.33;;
70313;SDS011;57725;47.526;18.986;2022-09-09T17:03:54;16.65;;;2.30;;
70313;SDS011;57725;47.526;18.986;2022-09-09T17:06:25;9.07;;;0.88;;
70313;SDS011;57725;47.526;18.986;2022-09-09T17:08:55;5.20;;;0.77;;
70313;SDS011;57725;47.526;18.986;2022-09-09T17:11:25;9.88;;;1.80;;
70313;SDS011;57725;47.526;18.986;2022-09-09T17:13:53;5.63;;;1.38;;
70313;SDS011;57725;47.526;18.986;2022-09-09T17:16:23;6.45;;;2.13;;
70313;SDS011;57725;47.526;18.986;2022-09-09T17:18:52;13.30;;;1.00;;
70313;SDS011;57725;47.526;18.986;2022-09-09T17:21:20;6.90;;;0.60;;
70313;SDS011;57725;47.526;18.986;2022-09-09T17:23:48;9.48;;;1.55;;
70313;SDS011;57725;47.526;18.986;2022-09-09T17:26:16;7.22;;;1.08;;
70313;SDS011;57725;47.526;18.986;2022-09-09T17:28:45;5.93;;;0.95;;
70313;SDS011;57725;47.526;18.986;2022-09-09T17:31:14;5.97;;;0.75;;
70313;SDS011;57725;47.526;18.986;2022-09-09T17:33:56;5.78;;;0.95;;
70313;SDS011;57725;47.526;18.986;2022-09-09T17:36:23;4.28;;;0.70;;
70313;SDS011;57725;47.526;18.986;2022-09-09T17:38:57;8.05;;;0.80;;